Terminal Aerodrome Forecast
Issued by NWS

Home | Current Version | Previous Version | Text Only | Print | Product List | Glossary On
Versions: 1 2 3 4 5 6 7 8 9 10 11 12 13 14 15 16 17 18 19 20 21 22 23 24 25 26 27 28 29 30 31 32 33 34 35 36 37 38 39
000
FTPA31 PHFO 020400 AAA
TAFOGG
TAF AMD
PHOG 020429Z 0204/0224 02011KT P6SM -TSRA SCT025CB BKN035
     FM020600 04011KT P6SM FEW025 BKN045
     FM022000 04011G18KT P6SM SCT025 SCT045
      AMD LTD TO WX VIS AND WIND 0209/0216=

USA.gov is the U.S. government's official web portal to all federal, state and local government web resources and services.